Time;durP1;ratioP1;P1;durP2;ratioP2;P2;SDS_P1;SDS_P2;PMS_P1;PMS_P2;Temp;Humidity;BMP_temperature;BMP_pressure;BME280_temperature;BME280_humidity;BME280_pressure;Samples;Min_cycle;Max_cycle;Signal;HPM_P1;HPM_P2
2021/04/22 00:00:26;;;;;;;;;;;;;;;20.56;47.55;101248.22;2085443;28;4007;-74
2021/04/22 00:01:27;;;;;;;;;;;;;;;20.57;47.43;101254.78;2085636;28;3822;-74
2021/04/22 00:02:28;;;;;;;;;;;;;;;20.57;47.50;101254.78;2085094;28;4007;-74
2021/04/22 00:03:28;;;;;;;;;;;;;;;20.56;47.38;101253.91;2085449;28;3951;-74
2021/04/22 00:04:29;;;;;;;;;;;;;;;20.57;47.46;101246.25;2083996;28;3759;-74
2021/04/22 00:05:30;;;;;;;;;;;;;;;;;;2085261;28;3999;-74
2021/04/22 00:06:31;;;;;;;;;;;;;;;20.57;47.45;101257.63;2085190;28;4025;-74
2021/04/22 00:07:31;;;;;;;;;;;;;;;20.57;47.43;101254.78;2085484;28;3853;-74
2021/04/22 00:08:32;;;;;;;;;;;;;;;20.56;47.54;101253.91;2085057;28;4061;-72
2021/04/22 00:09:33;;;;;;;;;;;;;;;;;;2084709;28;3906;-74
2021/04/22 00:10:34;;;;;;;;;;;;;;;20.56;47.42;101253.91;2084790;28;3869;-73
2021/04/22 00:11:34;;;;;;;;;;;;;;;20.56;47.41;101253.91;2085330;28;3783;-73
2021/04/22 00:12:35;;;;;;;;;;;;;;;;;;2085275;28;3784;-73
2021/04/22 00:13:36;;;;;;;;;;;;;;;20.56;47.36;101247.41;2084429;28;3859;-73
2021/04/22 00:14:36;;;;;;;;;;;;;;;20.56;47.44;101250.25;2084811;28;4030;-74
2021/04/22 00:15:37;;;;;;;;;;;;;;;20.56;47.40;101251.06;2085268;28;3870;-73
2021/04/22 00:16:38;;;;;;;;;;;;;;;;;;2084792;28;5144;-74
2021/04/22 00:17:39;;;;;;;;;;;;;;;20.57;47.44;101243.41;2084924;28;3948;-74
2021/04/22 00:18:40;;;;;;;;;;;;;;;20.56;47.36;101247.41;2085171;28;3913;-74
2021/04/22 00:19:42;;;;;;;;;;;;;;;20.57;47.39;101246.25;2083575;28;3894;-73
2021/04/22 00:20:42;;;;;;;;;;;;;;;20.56;47.36;101253.91;2084852;28;3899;-74
2021/04/22 00:21:44;;;;;;;;;;;;;;;20.56;47.33;101247.41;2085094;28;3829;-74
2021/04/22 00:22:45;;;;;;;;;;;;;;;20.57;47.26;101249.09;2084807;28;3864;-73
2021/04/22 00:23:46;;;;;;;;;;;;;;;20.58;47.42;101253.59;2085450;28;4011;-73
2021/04/22 00:24:47;;;;;;;;;;;;;;;20.57;47.38;101251.94;2084519;28;3884;-73
2021/04/22 00:25:47;;;;;;;;;;;;;;;20.57;47.52;101249.09;2085164;28;3752;-74
2021/04/22 00:26:48;;;;;;;;;;;;;;;20.58;47.43;101254.41;2084990;28;3979;-74
2021/04/22 00:27:49;;;;;;;;;;;;;;;20.54;47.37;101247.75;2084868;28;3813;-74
2021/04/22 00:28:50;;;;;;;;;;;;;;;20.57;47.34;101249.09;2084093;28;4899;-74
2021/04/22 00:29:51;;;;;;;;;;;;;;;20.58;47.36;101248.72;2085576;28;3858;-74
2021/04/22 00:30:51;;;;;;;;;;;;;;;20.57;47.38;101254.78;2084641;28;4967;-74
2021/04/22 00:31:52;;;;;;;;;;;;;;;;;;2084838;28;3862;-74
2021/04/22 00:32:53;;;;;;;;;;;;;;;;;;2084876;28;3989;-73
2021/04/22 00:33:54;;;;;;;;;;;;;;;20.58;47.50;101256.44;2084727;28;3904;-73
2021/04/22 00:34:54;;;;;;;;;;;;;;;;;;2084293;28;3948;-73
2021/04/22 00:35:55;;;;;;;;;;;;;;;20.58;47.54;101257.25;2085376;28;3845;-73
2021/04/22 00:36:56;;;;;;;;;;;;;;;20.57;47.65;101257.63;2084764;28;4032;-73
2021/04/22 00:37:57;;;;;;;;;;;;;;;;;;2085057;28;4022;-74
2021/04/22 00:38:57;;;;;;;;;;;;;;;20.58;47.55;101262.13;2085063;28;4104;-73
2021/04/22 00:39:58;;;;;;;;;;;;;;;20.57;47.70;101257.63;2084885;28;4147;-73
2021/04/22 00:40:59;;;;;;;;;;;;;;;;;;2085084;28;3866;-73
2021/04/22 00:42:00;;;;;;;;;;;;;;;20.58;47.76;101257.25;2084989;28;3841;-73
2021/04/22 00:43:00;;;;;;;;;;;;;;;20.58;47.58;101259.28;2085607;28;3972;-73
2021/04/22 00:44:03;;;;;;;;;;;;;;;20.58;47.76;101262.94;2084549;28;4006;-73
2021/04/22 00:45:04;;;;;;;;;;;;;;;20.58;47.60;101262.94;2084939;28;4025;-74
2021/04/22 00:46:04;;;;;;;;;;;;;;;;;;2084377;28;3961;-73
2021/04/22 00:47:05;;;;;;;;;;;;;;;20.59;47.63;101269.47;2085566;28;4122;-74
2021/04/22 00:48:06;;;;;;;;;;;;;;;20.59;47.75;101269.47;2084709;28;4051;-73
2021/04/22 00:49:07;;;;;;;;;;;;;;;20.59;47.69;101266.63;2084319;28;3987;-74
2021/04/22 00:50:08;;;;;;;;;;;;;;;20.58;47.67;101273.47;2084357;28;3867;-73
2021/04/22 00:51:08;;;;;;;;;;;;;;;20.59;47.75;101273.16;2085078;28;3862;-74
2021/04/22 00:52:10;;;;;;;;;;;;;;;20.58;47.71;101276.31;2084968;28;3929;-74
2021/04/22 00:53:10;;;;;;;;;;;;;;;20.58;47.86;101273.47;2085082;28;4022;-74
2021/04/22 00:54:11;;;;;;;;;;;;;;;20.58;47.83;101271.47;2085047;28;3837;-74
2021/04/22 00:55:12;;;;;;;;;;;;;;;20.58;47.82;101268.63;2084539;28;3818;-74
2021/04/22 00:56:18;;;;;;;;;;;;;;;20.58;47.78;101271.47;2084868;28;4065;-74
2021/04/22 00:57:19;;;;;;;;;;;;;;;20.59;47.78;101272.31;2084610;28;4005;-74
2021/04/22 00:58:19;;;;;;;;;;;;;;;20.58;47.81;101273.47;2085046;28;3823;-73
2021/04/22 00:59:20;;;;;;;;;;;;;;;20.59;47.84;101275.16;2085063;28;3946;-73
2021/04/22 01:00:21;;;;;;;;;;;;;;;20.58;47.75;101270.66;2084361;28;3959;-74
2021/04/22 01:01:22;;;;;;;;;;;;;;;20.59;47.78;101277.97;2085119;28;3755;-77
2021/04/22 01:02:22;;;;;;;;;;;;;;;20.58;47.86;101271.47;2084846;28;3871;-78
2021/04/22 01:03:23;;;;;;;;;;;;;;;20.60;47.80;101276.84;2084568;28;3813;-75
2021/04/22 01:04:24;;;;;;;;;;;;;;;;;;2084981;28;3843;-75
2021/04/22 01:05:25;;;;;;;;;;;;;;;20.56;47.87;101273.81;2084867;28;5061;-75
2021/04/22 01:06:25;;;;;;;;;;;;;;;20.57;47.80;101271.81;2084966;28;6048;-75
2021/04/22 01:07:26;;;;;;;;;;;;;;;20.58;47.69;101276.31;2084360;28;4056;-71
2021/04/22 01:08:27;;;;;;;;;;;;;;;20.58;47.71;101276.31;2083989;28;3905;-71
2021/04/22 01:09:27;;;;;;;;;;;;;;;20.58;47.68;101274.31;2083068;28;4121;-71
2021/04/22 01:10:28;;;;;;;;;;;;;;;;;;2084759;28;3834;-73
2021/04/22 01:11:30;;;;;;;;;;;;;;;20.58;47.65;101273.47;2083865;28;5288;-73
2021/04/22 01:12:31;;;;;;;;;;;;;;;20.59;47.76;101277.97;2084972;28;3799;-73
2021/04/22 01:13:32;;;;;;;;;;;;;;;20.58;47.64;101282.00;2085085;28;4039;-74
2021/04/22 01:14:32;;;;;;;;;;;;;;;20.59;47.83;101275.16;2084909;28;3933;-74
2021/04/22 01:15:34;;;;;;;;;;;;;;;20.59;47.66;101286.50;2083199;28;3865;-75
2021/04/22 01:16:35;;;;;;;;;;;;;;;20.58;47.71;101282.00;2084857;28;4028;-74
2021/04/22 01:17:36;;;;;;;;;;;;;;;20.58;47.71;101268.63;2084479;28;3896;-76
2021/04/22 01:18:37;;;;;;;;;;;;;;;20.58;47.73;101280.00;2085216;28;4051;-74
2021/04/22 01:19:39;;;;;;;;;;;;;;;20.58;47.78;101279.16;2084382;28;5206;-74
2021/04/22 01:20:40;;;;;;;;;;;;;;;20.58;47.71;101277.16;2084455;28;3895;-75
2021/04/22 01:21:41;;;;;;;;;;;;;;;20.58;47.65;101282.00;2085007;28;3810;-74
2021/04/22 01:22:41;;;;;;;;;;;;;;;20.58;47.73;101282.84;2084652;28;3904;-74
2021/04/22 01:23:42;;;;;;;;;;;;;;;;;;2084507;28;4028;-75
2021/04/22 01:24:43;;;;;;;;;;;;;;;20.58;47.75;101279.16;2084975;28;4013;-74
2021/04/22 01:25:43;;;;;;;;;;;;;;;20.58;47.67;101282.84;2083695;28;3881;-75
2021/04/22 01:26:44;;;;;;;;;;;;;;;20.57;47.64;101283.19;2082559;28;3887;-74
2021/04/22 01:27:45;;;;;;;;;;;;;;;;;;2083056;28;4054;-75
2021/04/22 01:28:46;;;;;;;;;;;;;;;20.57;47.77;101283.19;2082218;28;3843;-74
2021/04/22 01:29:47;;;;;;;;;;;;;;;20.57;47.75;101277.50;2082799;28;3940;-74
2021/04/22 01:30:48;;;;;;;;;;;;;;;;;;2082534;28;4145;-74
2021/04/22 01:31:49;;;;;;;;;;;;;;;20.57;47.76;101280.34;2073398;28;3852;-74
2021/04/22 01:32:50;;;;;;;;;;;;;;;20.59;47.73;101283.66;2076152;28;3874;-74
2021/04/22 01:33:51;;;;;;;;;;;;;;;;;;2084063;28;3864;-74
2021/04/22 01:34:51;;;;;;;;;;;;;;;20.59;47.69;101280.81;2085173;28;3881;-73
2021/04/22 01:35:52;;;;;;;;;;;;;;;20.59;47.62;101283.66;2082566;28;4196;-73
2021/04/22 01:36:53;;;;;;;;;;;;;;;20.58;47.78;101268.63;2085400;28;4040;-73
2021/04/22 01:37:54;;;;;;;;;;;;;;;20.59;47.61;101276.00;2085622;28;3858;-77
2021/04/22 01:38:55;;;;;;;;;;;;;;;20.59;47.71;101275.16;2084777;28;4232;-71
2021/04/22 01:39:55;;;;;;;;;;;;;;;20.59;47.59;101269.47;2084197;28;4813;-73
2021/04/22 01:40:56;;;;;;;;;;;;;;;20.58;47.67;101271.47;2084896;28;3880;-72
2021/04/22 01:41:57;;;;;;;;;;;;;;;20.58;47.69;101273.47;2086043;28;4001;-73
2021/04/22 01:42:57;;;;;;;;;;;;;;;20.58;47.66;101276.31;2086221;28;3985;-72
2021/04/22 01:43:58;;;;;;;;;;;;;;;20.57;47.67;101277.50;2085278;28;3849;-73
2021/04/22 01:44:59;;;;;;;;;;;;;;;20.57;47.76;101271.81;2085631;28;3974;-71
2021/04/22 01:46:00;;;;;;;;;;;;;;;20.58;47.65;101274.31;2086405;28;3859;-72
2021/04/22 01:47:01;;;;;;;;;;;;;;;20.58;47.59;101274.31;2085943;28;4161;-72
2021/04/22 01:48:01;;;;;;;;;;;;;;;20.58;47.62;101282.84;2085575;28;4162;-72
2021/04/22 01:49:03;;;;;;;;;;;;;;;20.59;47.73;101277.97;2086024;28;4189;-72
2021/04/22 01:50:03;;;;;;;;;;;;;;;;;;2086308;28;4320;-72
2021/04/22 01:51:05;;;;;;;;;;;;;;;20.58;47.62;101277.16;2086324;28;3805;-72
2021/04/22 01:52:05;;;;;;;;;;;;;;;;;;2084761;28;3926;-72
2021/04/22 01:53:06;;;;;;;;;;;;;;;;;;2085970;28;3863;-72
2021/04/22 01:54:07;;;;;;;;;;;;;;;20.58;47.65;101280.00;2085342;28;4052;-71
2021/04/22 01:55:07;;;;;;;;;;;;;;;;;;2086814;28;3944;-71
2021/04/22 01:56:08;;;;;;;;;;;;;;;20.58;47.71;101277.16;2085001;28;3832;-72
2021/04/22 01:57:09;;;;;;;;;;;;;;;20.58;47.63;101290.53;2086156;28;3947;-71
2021/04/22 01:58:10;;;;;;;;;;;;;;;20.58;47.82;101287.69;2085518;28;3883;-72
2021/04/22 01:59:10;;;;;;;;;;;;;;;;;;2085632;28;3847;-72
2021/04/22 02:00:11;;;;;;;;;;;;;;;20.58;47.74;101282.00;2086044;28;3811;-72
2021/04/22 02:01:12;;;;;;;;;;;;;;;20.60;47.68;101285.38;2085942;28;4032;-72
2021/04/22 02:02:13;;;;;;;;;;;;;;;20.59;47.76;101277.97;2085661;28;5136;-72
2021/04/22 02:03:14;;;;;;;;;;;;;;;20.59;47.86;101289.34;2085066;28;4017;-72
2021/04/22 02:04:14;;;;;;;;;;;;;;;20.58;47.85;101280.00;2085930;28;4115;-72
2021/04/22 02:05:15;;;;;;;;;;;;;;;20.57;47.90;101283.19;2085998;28;4000;-72
2021/04/22 02:06:16;;;;;;;;;;;;;;;20.58;47.75;101279.16;2085467;28;4108;-71
2021/04/22 02:07:17;;;;;;;;;;;;;;;20.58;47.77;101276.31;2085887;28;3971;-72
2021/04/22 02:08:17;;;;;;;;;;;;;;;20.59;47.77;101275.16;2085387;28;3979;-72
2021/04/22 02:09:18;;;;;;;;;;;;;;;20.59;47.93;101280.81;2085494;28;3849;-75
2021/04/22 02:10:19;;;;;;;;;;;;;;;20.59;47.84;101280.81;2086101;28;4291;-74
2021/04/22 02:11:20;;;;;;;;;;;;;;;20.58;47.77;101280.00;2085565;28;5070;-74
2021/04/22 02:12:20;;;;;;;;;;;;;;;20.59;47.74;101277.97;2086224;28;3848;-74
2021/04/22 02:13:21;;;;;;;;;;;;;;;20.59;47.95;101286.50;2085447;28;3870;-73
2021/04/22 02:14:22;;;;;;;;;;;;;;;20.59;47.91;101280.81;2086077;28;4000;-73
2021/04/22 02:15:23;;;;;;;;;;;;;;;20.58;47.84;101285.69;2085588;28;4929;-72
2021/04/22 02:16:23;;;;;;;;;;;;;;;20.59;47.94;101278.84;2085117;28;3989;-72
2021/04/22 02:17:24;;;;;;;;;;;;;;;20.59;47.92;101284.53;2085812;28;4011;-72
2021/04/22 02:18:25;;;;;;;;;;;;;;;20.60;47.90;101280.50;2085597;28;3856;-72
2021/04/22 02:19:26;;;;;;;;;;;;;;;20.59;47.96;101289.34;2086010;28;3826;-72
2021/04/22 02:20:26;;;;;;;;;;;;;;;20.59;47.97;101286.50;2085348;28;3860;-72
2021/04/22 02:21:27;;;;;;;;;;;;;;;20.60;47.96;101286.19;2085171;28;3984;-72
2021/04/22 02:22:28;;;;;;;;;;;;;;;20.60;48.07;101282.50;2085589;28;3950;-72
2021/04/22 02:23:29;;;;;;;;;;;;;;;20.60;48.11;101289.03;2083333;28;4152;-72
2021/04/22 02:24:29;;;;;;;;;;;;;;;20.60;48.17;101274.00;2086078;28;3827;-72
2021/04/22 02:25:30;;;;;;;;;;;;;;;20.59;48.17;101283.66;2085873;28;3785;-72
2021/04/22 02:26:31;;;;;;;;;;;;;;;20.60;48.14;101286.19;2084692;28;3859;-73
2021/04/22 02:27:32;;;;;;;;;;;;;;;20.60;48.12;101279.69;2085687;28;3796;-72
2021/04/22 02:28:34;;;;;;;;;;;;;;;20.60;48.07;101274.00;2086106;28;3950;-75
2021/04/22 02:29:34;;;;;;;;;;;;;;;20.61;48.22;101287.03;2085734;28;3978;-76
2021/04/22 02:30:35;;;;;;;;;;;;;;;20.61;48.16;101284.19;2085986;28;4947;-75
2021/04/22 02:31:36;;;;;;;;;;;;;;;20.60;48.16;101283.34;2085812;28;4028;-73
2021/04/22 02:32:37;;;;;;;;;;;;;;;20.61;48.33;101278.50;2085176;28;4033;-73
2021/04/22 02:33:38;;;;;;;;;;;;;;;20.60;48.54;101283.34;2085412;28;3916;-71
2021/04/22 02:34:39;;;;;;;;;;;;;;;20.62;48.45;101280.16;2087007;28;4031;-80
2021/04/22 02:35:40;;;;;;;;;;;;;;;20.62;48.62;101283.00;2084196;28;3930;-73
2021/04/22 02:36:41;;;;;;;;;;;;;;;20.63;48.69;101287.53;2084524;28;3871;-69
2021/04/22 02:37:41;;;;;;;;;;;;;;;20.63;48.69;101285.50;2086116;28;4096;-69
2021/04/22 02:38:42;;;;;;;;;;;;;;;20.63;48.70;101281.84;2085951;28;4119;-71
2021/04/22 02:39:43;;;;;;;;;;;;;;;20.64;48.71;101275.78;2085239;28;3875;-68
2021/04/22 02:40:44;;;;;;;;;;;;;;;20.64;48.93;101277.81;2085955;28;5140;-69
2021/04/22 02:41:45;;;;;;;;;;;;;;;20.65;48.79;101270.97;2085392;28;4028;-69
2021/04/22 02:42:48;;;;;;;;;;;;;;;20.65;49.02;101282.34;2085825;28;3965;-70
2021/04/22 02:43:49;;;;;;;;;;;;;;;20.66;48.95;101286.84;2086099;28;3872;-69
2021/04/22 02:44:50;;;;;;;;;;;;;;;20.65;49.15;101283.16;2085521;28;4014;-69
2021/04/22 02:45:51;;;;;;;;;;;;;;;20.65;49.06;101283.16;2086060;28;3865;-69
2021/04/22 02:46:52;;;;;;;;;;;;;;;20.65;48.93;101283.16;2085543;28;3880;-69
2021/04/22 02:47:52;;;;;;;;;;;;;;;20.66;48.90;101284.00;2086062;28;3999;-70
2021/04/22 02:48:53;;;;;;;;;;;;;;;20.66;49.04;101284.81;2085257;28;3974;-70
2021/04/22 02:49:54;;;;;;;;;;;;;;;20.66;49.04;101284.00;2085732;28;4023;-71
2021/04/22 02:50:55;;;;;;;;;;;;;;;20.66;48.94;101281.97;2085759;28;4960;-70
2021/04/22 02:51:55;;;;;;;;;;;;;;;20.67;49.01;101279.97;2084808;28;4068;-69
2021/04/22 02:52:56;;;;;;;;;;;;;;;20.67;49.05;101277.13;2083878;28;4111;-71
2021/04/22 02:53:57;;;;;;;;;;;;;;;20.67;49.21;101288.50;2085683;28;4014;-70
2021/04/22 02:54:58;;;;;;;;;;;;;;;20.67;48.98;101277.13;2085833;28;4146;-70
2021/04/22 02:55:58;;;;;;;;;;;;;;;20.67;49.06;101283.63;2085849;28;3847;-70
2021/04/22 02:56:59;;;;;;;;;;;;;;;20.68;49.07;101287.34;2085296;28;5452;-68
2021/04/22 02:58:00;;;;;;;;;;;;;;;20.67;49.04;101285.66;2085706;28;4151;-68
2021/04/22 02:59:00;;;;;;;;;;;;;;;20.68;49.07;101278.81;2084206;28;4037;-67
2021/04/22 03:00:01;;;;;;;;;;;;;;;20.68;49.06;101276.78;2085796;28;4004;-68
2021/04/22 03:01:02;;;;;;;;;;;;;;;20.68;49.05;101284.50;2085611;28;3817;-69
2021/04/22 03:02:03;;;;;;;;;;;;;;;20.68;49.00;101284.50;2084918;28;3859;-69
2021/04/22 03:03:04;;;;;;;;;;;;;;;20.68;49.14;101279.63;2086522;28;3982;-68
2021/04/22 03:04:05;;;;;;;;;;;;;;;20.71;49.11;101283.00;2085807;28;5124;-71
2021/04/22 03:05:06;;;;;;;;;;;;;;;20.69;49.14;101280.47;2085117;28;3835;-72
2021/04/22 03:06:07;;;;;;;;;;;;;;;20.69;49.04;101283.31;2085644;28;5033;-72
2021/04/22 03:07:07;;;;;;;;;;;;;;;20.69;49.20;101286.16;2085408;28;3900;-72
2021/04/22 03:08:08;;;;;;;;;;;;;;;20.69;49.05;101275.59;2085467;28;3868;-72
2021/04/22 03:09:09;;;;;;;;;;;;;;;20.70;49.10;101284.97;2085175;28;3819;-73
2021/04/22 03:10:10;;;;;;;;;;;;;;;20.69;49.23;101286.16;2085770;28;3839;-73
2021/04/22 03:11:10;;;;;;;;;;;;;;;20.69;49.08;101286.97;2084895;28;3932;-73
2021/04/22 03:12:11;;;;;;;;;;;;;;;20.70;49.08;101290.66;2085453;28;3974;-72
2021/04/22 03:13:12;;;;;;;;;;;;;;;20.69;49.09;101284.13;2086506;28;4072;-74
2021/04/22 03:14:13;;;;;;;;;;;;;;;20.69;49.05;101289.81;2084227;28;3849;-73
2021/04/22 03:15:13;;;;;;;;;;;;;;;20.70;49.04;101290.66;2085824;28;3863;-73
2021/04/22 03:16:14;;;;;;;;;;;;;;;20.70;49.10;101290.66;2085789;28;4008;-73
2021/04/22 03:17:15;;;;;;;;;;;;;;;20.70;49.26;101287.81;2084587;28;3832;-74
2021/04/22 03:18:16;;;;;;;;;;;;;;;20.70;49.29;101287.81;2084110;28;4020;-74
2021/04/22 03:19:16;;;;;;;;;;;;;;;20.71;49.18;101292.34;2085974;28;3883;-75
2021/04/22 03:20:17;;;;;;;;;;;;;;;20.71;49.19;101289.50;2085632;28;3922;-74
2021/04/22 03:21:18;;;;;;;;;;;;;;;20.72;49.19;101296.84;2086198;28;3913;-73
2021/04/22 03:22:19;;;;;;;;;;;;;;;20.72;49.26;101298.84;2084594;28;4290;-72
2021/04/22 03:23:19;;;;;;;;;;;;;;;20.72;49.38;101298.84;2084870;28;3859;-74
2021/04/22 03:24:20;;;;;;;;;;;;;;;20.73;49.60;101287.16;2085379;28;3821;-73
2021/04/22 03:25:21;;;;;;;;;;;;;;;20.74;49.47;101296.53;2085724;28;4011;-74
2021/04/22 03:26:22;;;;;;;;;;;;;;;20.75;49.48;101298.19;2084755;28;3871;-73
2021/04/22 03:27:22;;;;;;;;;;;;;;;20.74;49.52;101297.34;2083795;28;5261;-73
2021/04/22 03:28:23;;;;;;;;;;;;;;;20.74;49.47;101294.50;2085481;28;4076;-74
2021/04/22 03:29:24;;;;;;;;;;;;;;;20.75;49.53;101301.03;2085707;28;3837;-74
2021/04/22 03:30:24;;;;;;;;;;;;;;;20.75;49.50;101298.19;2085544;28;4044;-73
2021/04/22 03:31:26;;;;;;;;;;;;;;;20.75;49.76;101299.00;2084985;28;3976;-73
2021/04/22 03:32:27;;;;;;;;;;;;;;;20.76;49.71;101294.16;2085321;28;3735;-73
2021/04/22 03:33:28;;;;;;;;;;;;;;;20.76;49.66;101294.16;2085333;28;3807;-74
2021/04/22 03:34:29;;;;;;;;;;;;;;;20.76;49.73;101295.00;2084709;28;3957;-73
2021/04/22 03:35:30;;;;;;;;;;;;;;;20.76;49.72;101300.69;2085512;28;3978;-72
2021/04/22 03:36:30;;;;;;;;;;;;;;;20.77;49.67;101295.84;2084712;28;3975;-72
2021/04/22 03:37:31;;;;;;;;;;;;;;;20.76;49.63;101300.69;2085745;28;3809;-73
2021/04/22 03:38:32;;;;;;;;;;;;;;;20.76;49.61;101297.84;2083450;28;4067;-72
2021/04/22 03:39:33;;;;;;;;;;;;;;;20.75;49.62;101293.31;2085742;28;3905;-72
2021/04/22 03:40:33;;;;;;;;;;;;;;;20.76;49.66;101299.84;2085483;28;3957;-72
2021/04/22 03:41:34;;;;;;;;;;;;;;;20.76;49.72;101300.69;2084503;28;3833;-73
2021/04/22 03:42:37;;;;;;;;;;;;;;;20.77;49.72;101298.69;2085178;28;4010;-73
2021/04/22 03:43:37;;;;;;;;;;;;;;;20.77;49.69;101296.66;2085441;28;4031;-75
2021/04/22 03:44:38;;;;;;;;;;;;;;;20.77;49.70;101302.34;2083745;28;4986;-75
2021/04/22 03:45:39;;;;;;;;;;;;;;;20.77;49.59;101295.84;2084453;28;4056;-74
2021/04/22 03:46:40;;;;;;;;;;;;;;;20.76;49.72;101300.69;2085380;28;3963;-75
2021/04/22 03:47:41;;;;;;;;;;;;;;;20.77;49.68;101301.53;2085631;28;4137;-74
2021/04/22 03:48:41;;;;;;;;;;;;;;;20.77;49.69;101296.66;2084300;28;3876;-74
2021/04/22 03:49:43;;;;;;;;;;;;;;;20.77;49.62;101288.13;2084598;28;4091;-74
2021/04/22 03:50:44;;;;;;;;;;;;;;;20.77;49.60;101287.31;2085301;28;3927;-74
2021/04/22 03:51:45;;;;;;;;;;;;;;;20.76;49.39;101297.84;2075378;28;4132;-73
2021/04/22 03:52:46;;;;;;;;;;;;;;;20.76;49.43;101297.84;2076431;28;4002;-74
2021/04/22 03:53:46;;;;;;;;;;;;;;;20.76;49.36;101292.16;2085098;28;4020;-73
2021/04/22 03:54:47;;;;;;;;;;;;;;;20.76;49.37;101300.69;2085366;28;3852;-73
2021/04/22 03:55:48;;;;;;;;;;;;;;;20.76;49.40;101303.53;2084749;28;4016;-73
2021/04/22 03:56:49;;;;;;;;;;;;;;;20.77;49.40;101295.84;2085558;28;4002;-73
2021/04/22 03:57:49;;;;;;;;;;;;;;;20.77;49.39;101298.69;2085367;28;4007;-74
2021/04/22 03:58:50;;;;;;;;;;;;;;;20.76;49.24;101300.69;2084050;28;3923;-75
2021/04/22 03:59:51;;;;;;;;;;;;;;;20.76;49.18;101297.84;2085285;28;4090;-74
2021/04/22 04:00:52;;;;;;;;;;;;;;;20.77;49.21;101296.66;2084205;28;3876;-73
2021/04/22 04:01:53;;;;;;;;;;;;;;;20.76;49.12;101297.84;2083662;28;4027;-73
2021/04/22 04:02:54;;;;;;;;;;;;;;;20.76;49.36;101297.84;2085802;28;5120;-74
2021/04/22 04:03:55;;;;;;;;;;;;;;;20.77;49.12;101308.03;2084428;28;4790;-76
2021/04/22 04:04:55;;;;;;;;;;;;;;;20.77;49.08;101302.34;2085102;28;3820;-75
2021/04/22 04:05:56;;;;;;;;;;;;;;;20.77;49.13;101304.38;2085124;28;3857;-74
2021/04/22 04:06:57;;;;;;;;;;;;;;;20.77;49.35;101302.34;2076002;28;4014;-74
2021/04/22 04:07:57;;;;;;;;;;;;;;;20.78;49.20;101301.16;2075343;28;3991;-74
2021/04/22 04:08:58;;;;;;;;;;;;;;;20.77;49.22;101305.19;2084283;28;4029;-77
2021/04/22 04:09:59;;;;;;;;;;;;;;;20.78;49.13;101304.00;2083347;28;3889;-76
2021/04/22 04:11:00;;;;;;;;;;;;;;;20.77;49.05;101310.88;2085333;28;4019;-75
2021/04/22 04:12:00;;;;;;;;;;;;;;;20.77;49.16;101313.72;2084818;28;4108;-72
2021/04/22 04:13:01;;;;;;;;;;;;;;;20.77;49.22;101305.19;2085003;28;4099;-73
2021/04/22 04:14:02;;;;;;;;;;;;;;;20.79;49.27;101313.41;2084760;28;4048;-74
2021/04/22 04:15:03;;;;;;;;;;;;;;;20.79;49.26;101313.41;2085164;28;4040;-74
2021/04/22 04:16:04;;;;;;;;;;;;;;;20.80;49.20;101306.53;2084461;28;4209;-74
2021/04/22 04:17:04;;;;;;;;;;;;;;;20.80;49.07;101303.69;2084678;28;4044;-74
2021/04/22 04:18:05;;;;;;;;;;;;;;;20.80;49.27;101303.69;2085677;28;4006;-74
2021/04/22 04:19:06;;;;;;;;;;;;;;;20.80;49.35;101300.84;2083910;28;4001;-73
2021/04/22 04:20:07;;;;;;;;;;;;;;;20.81;49.20;101313.88;2084199;28;3880;-74
2021/04/22 04:21:08;;;;;;;;;;;;;;;20.81;49.29;101313.88;2084051;28;3733;-74
2021/04/22 04:22:09;;;;;;;;;;;;;;;20.80;49.16;101313.03;2085065;28;3847;-73
2021/04/22 04:23:10;;;;;;;;;;;;;;;20.81;49.34;101309.00;2085558;28;5117;-73
2021/04/22 04:24:10;;;;;;;;;;;;;;;20.82;49.42;101304.19;2083795;28;3796;-72
2021/04/22 04:25:11;;;;;;;;;;;;;;;20.82;49.37;101313.53;2085208;28;4137;-77
2021/04/22 04:26:12;;;;;;;;;;;;;;;20.81;49.25;101306.16;2085096;28;6290;-74
2021/04/22 04:27:13;;;;;;;;;;;;;;;20.81;49.28;101309.00;2083554;28;3957;-75
2021/04/22 04:28:13;;;;;;;;;;;;;;;20.82;49.36;101309.88;2085815;28;4015;-74
2021/04/22 04:29:14;;;;;;;;;;;;;;;20.82;49.36;101312.72;2085006;28;3987;-75
2021/04/22 04:30:17;;;;;;;;;;;;;;;20.83;49.30;101314.38;2085567;28;3964;-75
2021/04/22 04:31:18;;;;;;;;;;;;;;;20.83;49.38;101317.22;2083647;28;4060;-74
2021/04/22 04:32:19;;;;;;;;;;;;;;;20.82;49.23;101316.38;2083665;28;3868;-75
2021/04/22 04:33:20;;;;;;;;;;;;;;;20.83;49.34;101314.38;2084575;28;4133;-74
2021/04/22 04:34:21;;;;;;;;;;;;;;;20.83;49.32;101318.03;2084805;28;3801;-75
2021/04/22 04:35:22;;;;;;;;;;;;;;;20.83;49.43;101320.88;2085053;28;5077;-75
2021/04/22 04:36:27;;;;;;;;;;;;;;;20.83;49.30;101309.50;2084708;28;4516;-71
2021/04/22 04:37:28;;;;;;;;;;;;;;;20.84;49.26;101318.88;2085466;28;3842;-71
2021/04/22 04:38:28;;;;;;;;;;;;;;;20.84;49.44;101322.59;2085748;28;3762;-71
2021/04/22 04:39:29;;;;;;;;;;;;;;;20.83;49.42;101318.03;2083937;28;3901;-71
2021/04/22 04:40:30;;;;;;;;;;;;;;;20.84;49.37;101313.19;2084100;28;4170;-71
2021/04/22 04:41:31;;;;;;;;;;;;;;;20.84;49.34;101322.59;2084116;28;4010;-71
2021/04/22 04:42:31;;;;;;;;;;;;;;;20.84;49.41;101319.75;2084718;28;3786;-71
2021/04/22 04:43:32;;;;;;;;;;;;;;;20.84;49.23;101319.75;2084951;28;4073;-71
2021/04/22 04:44:33;;;;;;;;;;;;;;;20.84;49.37;101325.44;2085189;28;4009;-74
2021/04/22 04:45:33;;;;;;;;;;;;;;;20.84;49.41;101318.88;2083763;28;3742;-74
2021/04/22 04:46:35;;;;;;;;;;;;;;;20.84;49.29;101327.41;2084192;28;4896;-75
2021/04/22 04:47:36;;;;;;;;;;;;;;;20.84;49.39;101325.44;2084747;28;3773;-77
2021/04/22 04:48:37;;;;;;;;;;;;;;;20.84;49.33;101325.44;2084505;28;3879;-77
2021/04/22 04:49:37;;;;;;;;;;;;;;;20.84;49.24;101322.59;2084855;28;3868;-78
2021/04/22 04:50:38;;;;;;;;;;;;;;;20.84;49.39;101328.28;2083900;28;3869;-73
2021/04/22 04:51:39;;;;;;;;;;;;;;;20.84;49.35;101327.41;2082953;28;3958;-73
2021/04/22 04:52:40;;;;;;;;;;;;;;;20.85;49.28;101332.78;2084460;28;3894;-73
2021/04/22 04:53:40;;;;;;;;;;;;;;;20.84;49.43;101322.59;2084613;28;4070;-73
2021/04/22 04:54:41;;;;;;;;;;;;;;;20.85;49.46;101329.09;2084906;28;5294;-74
2021/04/22 04:55:42;;;;;;;;;;;;;;;20.84;49.45;101328.28;2083579;28;4021;-74
2021/04/22 04:56:43;;;;;;;;;;;;;;;20.86;49.29;101330.75;2084695;28;3918;-74
2021/04/22 04:57:43;;;;;;;;;;;;;;;20.85;49.39;101329.94;2084609;28;4090;-73
2021/04/22 04:58:44;;;;;;;;;;;;;;;20.85;49.28;101338.47;2085265;28;3860;-73
2021/04/22 04:59:45;;;;;;;;;;;;;;;20.85;49.26;101327.09;2084271;28;4067;-74
2021/04/22 05:00:46;;;;;;;;;;;;;;;20.86;49.25;101331.59;2082872;28;4224;-76
2021/04/22 05:01:47;;;;;;;;;;;;;;;20.85;49.40;101335.63;2084733;28;4057;-76
2021/04/22 05:02:48;;;;;;;;;;;;;;;20.85;49.19;101341.31;2084399;28;4031;-76
2021/04/22 05:03:49;;;;;;;;;;;;;;;20.86;49.16;101340.13;2084327;28;3995;-75
2021/04/22 05:04:49;;;;;;;;;;;;;;;20.86;49.15;101336.44;2084287;28;3926;-76
2021/04/22 05:05:50;;;;;;;;;;;;;;;20.86;49.25;101327.91;2083970;28;3864;-72
2021/04/22 05:06:51;;;;;;;;;;;;;;;20.87;49.18;101338.13;2084034;28;3959;-72
2021/04/22 05:07:52;;;;;;;;;;;;;;;20.86;49.15;101328.75;2083385;28;5102;-72
2021/04/22 05:08:52;;;;;;;;;;;;;;;20.86;49.16;101328.75;2083185;28;4003;-76
2021/04/22 05:09:53;;;;;;;;;;;;;;;20.87;49.46;101336.13;2084870;28;4097;-78
2021/04/22 05:10:54;;;;;;;;;;;;;;;20.88;49.23;101342.63;2084523;28;4039;-70
2021/04/22 05:11:54;;;;;;;;;;;;;;;20.87;49.08;101338.97;2084845;28;3887;-73
2021/04/22 05:12:55;;;;;;;;;;;;;;;20.87;49.14;101330.44;2083513;28;3869;-71
2021/04/22 05:13:56;;;;;;;;;;;;;;;20.88;49.27;101339.78;2084581;28;3877;-72
2021/04/22 05:14:57;;;;;;;;;;;;;;;20.89;49.30;101338.59;2084141;28;4055;-77
2021/04/22 05:15:58;;;;;;;;;;;;;;;20.88;49.19;101329.25;2085108;28;4095;-74
2021/04/22 05:16:59;;;;;;;;;;;;;;;20.89;49.17;101338.59;2083144;28;4008;-73
2021/04/22 05:18:00;;;;;;;;;;;;;;;20.89;49.33;101332.91;2085277;28;3914;-74
2021/04/22 05:19:01;;;;;;;;;;;;;;;20.88;49.23;101334.09;2085283;28;3851;-72
2021/04/22 05:20:01;;;;;;;;;;;;;;;20.90;49.37;101343.13;2085490;28;3989;-72
2021/04/22 05:21:02;;;;;;;;;;;;;;;20.89;49.36;101335.75;2085723;28;3847;-75
2021/04/22 05:22:03;;;;;;;;;;;;;;;20.88;49.17;101340.63;2085539;28;3847;-77